createdAt,value
2023-04-24T00:01:20.390Z,99855.88
2023-04-24T00:03:47.876Z,99851.22
2023-04-24T00:06:17.850Z,99854.47
2023-04-24T00:08:45.280Z,99854.34
2023-04-24T00:11:14.026Z,99844.88
2023-04-24T00:13:41.455Z,99847.88
2023-04-24T00:16:08.944Z,99840.69
2023-04-24T00:18:36.348Z,99836.53
2023-04-24T00:21:03.892Z,99838.09
2023-04-24T00:23:31.322Z,99830.53
2023-04-24T00:25:58.922Z,99824.38
2023-04-24T00:28:27.687Z,99818.31
2023-04-24T00:30:55.147Z,99822.22
2023-04-24T00:33:22.552Z,99816.88
2023-04-24T00:35:49.978Z,99807.66
2023-04-24T00:38:17.355Z,99810.44
2023-04-24T00:40:44.797Z,99807.44
2023-04-24T00:43:12.840Z,99801.94
2023-04-24T00:45:41.794Z,99804.00
2023-04-24T00:48:09.445Z,99796.53
2023-04-24T00:50:38.057Z,99796.44
2023-04-24T00:53:05.571Z,99789.75
2023-04-24T00:55:33.763Z,99782.38
2023-04-24T00:58:01.476Z,99787.50
2023-04-24T01:00:28.988Z,99773.28
2023-04-24T01:02:59.841Z,99770.84
2023-04-24T01:05:28.209Z,99775.31
2023-04-24T01:07:55.785Z,99787.16
2023-04-24T01:10:23.949Z,99787.38
2023-04-24T01:12:52.084Z,99794.53
2023-04-24T01:15:19.489Z,99792.59
2023-04-24T01:17:47.636Z,99786.84
2023-04-24T01:20:16.649Z,99792.44
2023-04-24T01:22:45.491Z,99787.00
2023-04-24T01:25:12.919Z,99785.47
2023-04-24T01:27:40.530Z,99787.38
2023-04-24T01:30:09.400Z,99776.78
2023-04-24T01:32:38.215Z,99787.56
2023-04-24T01:35:06.875Z,99784.03
2023-04-24T01:37:34.336Z,99776.09
2023-04-24T01:40:04.426Z,99775.97
2023-04-24T01:42:32.157Z,99768.22
2023-04-24T01:45:00.182Z,99770.84
2023-04-24T01:47:27.798Z,99774.41
2023-04-24T01:49:55.220Z,99772.16
2023-04-24T01:52:22.638Z,99757.97
2023-04-24T01:54:50.342Z,99756.13
2023-04-24T01:57:19.215Z,99755.03
2023-04-24T01:59:46.616Z,99741.28
2023-04-24T02:02:14.105Z,99753.28
2023-04-24T02:04:41.606Z,99760.97
2023-04-24T02:07:09.012Z,99754.75
2023-04-24T02:09:36.412Z,99753.84
2023-04-24T02:12:03.893Z,99757.56
2023-04-24T02:14:32.586Z,99748.50
2023-04-24T02:17:00.022Z,99750.06
2023-04-24T02:19:27.417Z,99746.66
2023-04-24T02:21:54.828Z,99732.97
2023-04-24T02:24:22.211Z,99737.13
2023-04-24T02:26:49.667Z,99735.13
2023-04-24T02:29:17.100Z,99740.13
2023-04-24T02:31:45.916Z,99738.16
2023-04-24T02:34:13.315Z,99745.22
2023-04-24T02:36:40.717Z,99742.63
2023-04-24T02:39:08.246Z,99735.13
2023-04-24T02:41:35.702Z,99737.03
2023-04-24T02:44:03.103Z,99742.06
2023-04-24T02:46:30.878Z,99733.38
2023-04-24T02:48:59.653Z,99743.34
2023-04-24T02:51:27.790Z,99735.59
2023-04-24T02:53:55.389Z,99733.44
2023-04-24T02:56:22.909Z,99740.19
2023-04-24T02:58:50.390Z,99728.75
2023-04-24T03:01:18.871Z,99729.69
2023-04-24T03:03:46.659Z,99731.63
2023-04-24T03:06:15.516Z,99730.63
2023-04-24T03:08:42.913Z,99732.00
2023-04-24T03:11:10.348Z,99734.94
2023-04-24T03:13:37.728Z,99740.63
2023-04-24T03:16:05.796Z,99748.22
2023-04-24T03:18:33.265Z,99748.00
2023-04-24T03:21:00.717Z,99745.94
2023-04-24T03:23:29.424Z,99748.84
2023-04-24T03:25:56.882Z,99747.81
2023-04-24T03:28:24.450Z,99748.00
2023-04-24T03:30:51.860Z,99742.13
2023-04-24T03:33:19.268Z,99742.31
2023-04-24T03:35:46.656Z,99736.72
2023-04-24T03:38:14.054Z,99734.72
2023-04-24T03:40:42.885Z,99743.31
2023-04-24T03:43:10.249Z,99750.09
2023-04-24T03:45:37.643Z,99745.66
2023-04-24T03:48:05.187Z,99749.75
2023-04-24T03:50:32.570Z,99754.94
2023-04-24T03:52:59.945Z,99750.84
2023-04-24T03:55:27.366Z,99748.84
2023-04-24T03:57:56.106Z,99741.94
2023-04-24T04:00:23.561Z,99738.44
2023-04-24T04:02:51.116Z,99741.75
2023-04-24T04:05:18.893Z,99742.41
2023-04-24T04:07:46.368Z,99735.84
2023-04-24T04:10:13.860Z,99737.13
2023-04-24T04:12:41.312Z,99733.94
2023-04-24T04:15:10.921Z,99723.34
2023-04-24T04:17:38.990Z,99724.34
2023-04-24T04:20:10.310Z,99736.59
2023-04-24T04:22:37.950Z,99728.00
2023-04-24T04:25:05.795Z,99729.75
2023-04-24T04:27:33.910Z,99730.19
2023-04-24T04:30:03.984Z,99732.59
2023-04-24T04:32:34.139Z,99735.28
2023-04-24T04:35:04.106Z,99731.03
2023-04-24T04:37:32.298Z,99731.03
2023-04-24T04:39:59.962Z,99741.97
2023-04-24T04:42:27.930Z,99744.66
2023-04-24T04:44:55.362Z,99740.97
2023-04-24T04:47:23.864Z,99746.59
2023-04-24T04:49:53.085Z,99745.81
2023-04-24T04:52:20.719Z,99756.69
2023-04-24T04:54:48.162Z,99758.28
2023-04-24T04:57:15.628Z,99758.63
2023-04-24T04:59:43.237Z,99758.25
2023-04-24T05:02:11.194Z,99759.09
2023-04-24T05:04:38.872Z,99764.66
2023-04-24T05:07:07.816Z,99767.25
2023-04-24T05:09:35.251Z,99760.16
2023-04-24T05:12:03.028Z,99761.88
2023-04-24T05:14:30.465Z,99756.13
2023-04-24T05:16:57.969Z,99754.88
2023-04-24T05:19:25.401Z,99757.06
2023-04-24T05:21:52.785Z,99747.81
2023-04-24T05:24:21.493Z,99756.97
2023-04-24T05:26:48.919Z,99760.25
2023-04-24T05:29:16.470Z,99764.25
2023-04-24T05:31:43.914Z,99756.97
2023-04-24T05:34:11.331Z,99757.16
2023-04-24T05:36:38.717Z,99767.78
2023-04-24T05:39:08.150Z,99752.47
2023-04-24T05:41:37.180Z,99757.22
2023-04-24T05:44:04.599Z,99750.16
2023-04-24T05:46:32.112Z,99755.03
2023-04-24T05:48:59.668Z,99751.44
2023-04-24T05:51:27.140Z,99748.03
2023-04-24T05:53:54.574Z,99742.59
2023-04-24T05:56:22.510Z,99751.34
2023-04-24T05:58:51.243Z,99750.78
2023-04-24T06:01:19.205Z,99751.88
2023-04-24T06:03:46.847Z,99755.53
2023-04-24T06:06:14.534Z,99759.41
2023-04-24T06:08:43.441Z,99756.81
2023-04-24T06:11:10.874Z,99755.28
2023-04-24T06:13:38.291Z,99755.78
2023-04-24T06:16:07.399Z,99767.28
2023-04-24T06:18:34.852Z,99780.09
2023-04-24T06:21:02.309Z,99779.38
2023-04-24T06:23:30.360Z,99788.69
2023-04-24T06:25:57.830Z,99779.47
2023-04-24T06:28:25.232Z,99789.03
2023-04-24T06:30:52.669Z,99780.72
2023-04-24T06:33:23.691Z,99780.44
2023-04-24T06:35:51.417Z,99791.19
2023-04-24T06:38:18.858Z,99782.63
2023-04-24T06:40:46.303Z,99777.69
2023-04-24T06:43:13.737Z,99784.84
2023-04-24T06:45:41.296Z,99792.16
2023-04-24T06:48:08.913Z,99792.88
2023-04-24T06:50:37.662Z,99787.22
2023-04-24T06:53:05.179Z,99794.81
2023-04-24T06:55:32.629Z,99771.13
2023-04-24T06:58:00.052Z,99781.84
2023-04-24T07:00:27.453Z,99774.03
2023-04-24T07:02:55.097Z,99784.00
2023-04-24T07:05:22.648Z,99783.50
2023-04-24T07:07:52.194Z,99781.75
2023-04-24T07:10:21.098Z,99776.28
2023-04-24T07:12:48.485Z,99775.31
2023-04-24T07:15:15.896Z,99787.69
2023-04-24T07:17:44.600Z,99776.06
2023-04-24T07:20:12.632Z,99775.13
2023-04-24T07:22:40.527Z,99781.19
2023-04-24T07:25:10.306Z,99781.44
2023-04-24T07:27:37.862Z,99779.19
2023-04-24T07:30:06.438Z,99777.00
2023-04-24T07:32:36.772Z,99772.44
2023-04-24T07:35:04.279Z,99775.31
2023-04-24T07:37:31.746Z,99779.00
2023-04-24T07:39:59.241Z,99778.78
2023-04-24T07:42:27.934Z,99769.38
2023-04-24T07:44:55.317Z,99772.06
2023-04-24T07:47:22.802Z,99772.13
2023-04-24T07:49:50.251Z,99764.59
2023-04-24T07:52:17.619Z,99771.22
2023-04-24T07:54:45.335Z,99776.72
2023-04-24T07:57:12.973Z,99777.97
2023-04-24T07:59:41.832Z,99775.97
2023-04-24T08:02:10.509Z,99782.53
2023-04-24T08:04:38.114Z,99774.63
2023-04-24T08:07:05.772Z,99776.22
2023-04-24T08:09:33.206Z,99770.66
2023-04-24T08:12:00.760Z,99768.50
2023-04-24T08:14:28.188Z,99771.69
2023-04-24T08:16:57.852Z,99768.00
2023-04-24T08:19:26.467Z,99776.09
2023-04-24T08:21:53.877Z,99788.81
2023-04-24T08:24:21.371Z,99787.88
2023-04-24T08:26:51.150Z,99774.66
2023-04-24T08:29:18.545Z,99775.97
2023-04-24T08:31:46.000Z,99771.41
2023-04-24T08:34:14.763Z,99762.25
2023-04-24T08:36:47.088Z,99758.28
2023-04-24T08:39:15.283Z,99761.84
2023-04-24T08:41:43.942Z,99757.09
2023-04-24T08:44:11.566Z,99767.19
2023-04-24T08:46:39.473Z,99764.31
2023-04-24T08:49:07.022Z,99764.72
2023-04-24T08:51:36.336Z,99760.75
2023-04-24T08:54:04.869Z,99759.38
2023-04-24T08:56:35.356Z,99768.53
2023-04-24T08:59:03.916Z,99772.16
2023-04-24T09:01:34.857Z,99774.50
2023-04-24T09:04:05.041Z,99778.38
2023-04-24T09:06:34.089Z,99767.28
2023-04-24T09:09:04.335Z,99781.22
2023-04-24T09:11:32.872Z,99775.47
2023-04-24T09:14:00.856Z,99775.75
2023-04-24T09:16:28.952Z,99774.38
2023-04-24T09:18:57.156Z,99771.00
2023-04-24T09:21:24.797Z,99773.66
2023-04-24T09:24:00.694Z,99770.53
2023-04-24T09:26:33.352Z,99767.22
2023-04-24T09:29:01.801Z,99770.22
2023-04-24T09:31:30.663Z,99770.97
2023-04-24T09:34:01.997Z,99766.06
2023-04-24T09:36:33.072Z,99768.56
2023-04-24T09:39:01.327Z,99782.22
2023-04-24T09:41:30.717Z,99782.91
2023-04-24T09:43:58.963Z,99787.16
2023-04-24T09:46:33.200Z,99773.16
2023-04-24T09:49:10.406Z,99769.56
2023-04-24T09:51:39.265Z,99774.63
2023-04-24T09:54:16.560Z,99768.81
2023-04-24T09:56:47.312Z,99779.53
2023-04-24T09:59:15.319Z,99773.31
2023-04-24T10:01:45.461Z,99767.44
2023-04-24T10:04:21.230Z,99766.28
2023-04-24T10:06:49.821Z,99760.75
2023-04-24T10:09:18.048Z,99755.69
2023-04-24T10:11:48.338Z,99760.19
2023-04-24T10:14:20.213Z,99756.97
2023-04-24T10:16:48.693Z,99756.00
2023-04-24T10:19:16.972Z,99760.06
2023-04-24T10:21:47.519Z,99759.59
2023-04-24T10:24:16.594Z,99758.22
2023-04-24T10:26:45.253Z,99756.22
2023-04-24T10:29:16.463Z,99766.56
2023-04-24T10:31:46.470Z,99767.47
2023-04-24T10:34:16.468Z,99761.75
2023-04-24T10:36:56.530Z,99760.22
2023-04-24T10:39:27.913Z,99770.53
2023-04-24T10:41:58.247Z,99768.16
2023-04-24T10:44:27.710Z,99772.94
2023-04-24T10:46:57.141Z,99773.50
2023-04-24T10:49:30.753Z,99770.41
2023-04-24T10:52:02.656Z,99775.38
2023-04-24T10:54:31.588Z,99765.09
2023-04-24T10:57:31.860Z,99760.66
2023-04-24T11:00:22.366Z,99763.72
2023-04-24T11:02:51.737Z,99756.69
2023-04-24T11:05:20.515Z,99752.19
2023-04-24T11:08:13.612Z,99748.84
2023-04-24T11:10:46.438Z,99754.06
2023-04-24T11:13:16.971Z,99745.38
2023-04-24T11:15:45.911Z,99755.06
2023-04-24T11:18:16.882Z,99746.22
2023-04-24T11:20:45.262Z,99742.09
2023-04-24T11:23:14.791Z,99739.78
2023-04-24T11:25:43.704Z,99736.13
2023-04-24T11:28:17.161Z,99739.66
2023-04-24T11:30:45.922Z,99746.34
2023-04-24T11:33:13.874Z,99763.53
2023-04-24T11:35:42.683Z,99763.31
2023-04-24T11:38:24.006Z,99772.94
2023-04-24T11:40:53.379Z,99774.06
2023-04-24T11:43:21.917Z,99775.09
2023-04-24T11:45:51.674Z,99768.22
2023-04-24T11:48:22.625Z,99777.81
2023-04-24T11:50:51.411Z,99778.03
2023-04-24T11:53:21.560Z,99780.88
2023-04-24T11:55:49.054Z,99767.16
2023-04-24T11:58:16.464Z,99772.00
2023-04-24T12:00:43.892Z,99762.38
2023-04-24T12:03:13.801Z,99760.53
2023-04-24T12:05:42.285Z,99761.50
2023-04-24T12:08:09.939Z,99744.31
2023-04-24T12:10:38.047Z,99752.81
2023-04-24T12:13:06.367Z,99745.41
2023-04-24T12:15:33.918Z,99744.53
2023-04-24T12:18:01.393Z,99742.81
2023-04-24T12:20:31.930Z,99746.94
2023-04-24T12:23:01.160Z,99740.16
2023-04-24T12:25:30.133Z,99720.00
2023-04-24T12:28:11.950Z,99725.97
2023-04-24T12:30:43.877Z,99715.03
2023-04-24T12:33:11.362Z,99714.19
2023-04-24T12:35:42.783Z,99719.75
2023-04-24T12:38:11.564Z,99721.22
2023-04-24T12:40:39.025Z,99724.13
2023-04-24T12:43:16.247Z,99711.53
2023-04-24T12:45:43.732Z,99720.78
2023-04-24T12:48:11.226Z,99721.47
2023-04-24T12:50:40.570Z,99737.00
2023-04-24T12:53:08.162Z,99739.56
2023-04-24T12:55:35.626Z,99747.34
2023-04-24T12:58:03.994Z,99747.31
2023-04-24T13:00:31.621Z,99732.16
2023-04-24T13:02:59.486Z,99733.31
2023-04-24T13:05:27.109Z,99723.22
2023-04-24T13:07:56.003Z,99736.97
2023-04-24T13:10:23.515Z,99732.94
2023-04-24T13:12:51.148Z,99740.31
2023-04-24T13:15:18.631Z,99732.72
2023-04-24T13:17:46.536Z,99723.22
2023-04-24T13:20:14.186Z,99721.03
2023-04-24T13:22:41.582Z,99715.06
2023-04-24T13:25:11.135Z,99726.03
2023-04-24T13:27:40.308Z,99735.84
2023-04-24T13:30:08.978Z,99741.22
2023-04-24T13:32:37.653Z,99734.81
2023-04-24T13:35:05.671Z,99739.53
2023-04-24T13:37:33.099Z,99719.50
2023-04-24T13:40:00.526Z,99730.91
2023-04-24T13:42:29.530Z,99723.28
2023-04-24T13:44:56.951Z,99715.06
2023-04-24T13:47:24.391Z,99716.97
2023-04-24T13:49:51.890Z,99712.97
2023-04-24T13:52:19.273Z,99719.13
2023-04-24T13:54:46.680Z,99716.09
2023-04-24T13:57:14.327Z,99717.72
2023-04-24T13:59:43.113Z,99720.00
2023-04-24T14:02:10.742Z,99718.28
2023-04-24T14:04:38.451Z,99731.28
2023-04-24T14:07:06.128Z,99720.50
2023-04-24T14:09:33.664Z,99724.06
2023-04-24T14:12:02.007Z,99717.22
2023-04-24T14:14:30.764Z,99721.59
2023-04-24T14:16:59.592Z,99723.16
2023-04-24T14:19:27.052Z,99713.50
2023-04-24T14:21:54.731Z,99725.34
2023-04-24T14:24:22.176Z,99728.38
2023-04-24T14:26:49.608Z,99715.81
2023-04-24T14:29:17.322Z,99715.50
2023-04-24T14:31:44.776Z,99710.47
2023-04-24T14:34:13.509Z,99725.16
2023-04-24T14:36:41.476Z,99720.06
2023-04-24T14:39:08.889Z,99724.38
2023-04-24T14:41:37.002Z,99733.81
2023-04-24T14:44:05.065Z,99738.97
2023-04-24T14:46:33.086Z,99730.47
2023-04-24T14:49:00.546Z,99733.34
2023-04-24T14:51:29.308Z,99732.38
2023-04-24T14:53:57.996Z,99742.44
2023-04-24T14:56:25.451Z,99738.34
2023-04-24T14:58:52.874Z,99738.13
2023-04-24T15:01:20.407Z,99738.84
2023-04-24T15:03:48.026Z,99734.41
2023-04-24T15:06:15.893Z,99747.91
2023-04-24T15:08:46.422Z,99754.97
2023-04-24T15:11:15.572Z,99747.66
2023-04-24T15:13:43.029Z,99744.41
2023-04-24T15:16:10.505Z,99748.53
2023-04-24T15:18:38.008Z,99748.53
2023-04-24T15:21:05.490Z,99757.53
2023-04-24T15:23:32.906Z,99765.56
2023-04-24T15:26:02.175Z,99762.88
2023-04-24T15:28:29.673Z,99765.03
2023-04-24T15:30:57.120Z,99763.16
2023-04-24T15:33:24.897Z,99775.69
2023-04-24T15:35:52.528Z,99773.69
2023-04-24T15:38:19.934Z,99767.72
2023-04-24T15:40:47.330Z,99774.25
2023-04-24T15:43:17.058Z,99774.38
2023-04-24T15:45:44.933Z,99770.44
2023-04-24T15:48:12.383Z,99771.69
2023-04-24T15:50:39.776Z,99770.31
2023-04-24T15:53:07.510Z,99774.66
2023-04-24T15:55:34.986Z,99774.97
2023-04-24T15:58:02.553Z,99777.22
2023-04-24T16:00:34.270Z,99777.34
2023-04-24T16:03:02.191Z,99778.03
2023-04-24T16:05:29.750Z,99780.00
2023-04-24T16:07:57.838Z,99776.06
2023-04-24T16:10:25.232Z,99776.72
2023-04-24T16:12:53.425Z,99783.03
2023-04-24T16:15:21.213Z,99789.81
2023-04-24T16:17:50.993Z,99792.00
2023-04-24T16:20:18.539Z,99781.47
2023-04-24T16:22:45.929Z,99787.91
2023-04-24T16:25:13.448Z,99786.56
2023-04-24T16:27:40.849Z,99801.38
2023-04-24T16:30:09.452Z,99798.06
2023-04-24T16:32:36.921Z,99808.47
2023-04-24T16:35:06.475Z,99813.44
2023-04-24T16:37:33.876Z,99834.56
2023-04-24T16:40:01.325Z,99834.41
2023-04-24T16:42:28.732Z,99862.88
2023-04-24T16:44:56.121Z,99858.78
2023-04-24T16:47:23.602Z,99844.81
2023-04-24T16:49:51.586Z,99864.66
2023-04-24T16:52:20.335Z,99863.41
2023-04-24T16:54:47.997Z,99878.78
2023-04-24T16:57:15.649Z,99877.69
2023-04-24T16:59:43.050Z,99878.16
2023-04-24T17:02:10.993Z,99881.72
2023-04-24T17:04:38.581Z,99887.28
2023-04-24T17:10:48.461Z,99891.66
2023-04-24T17:13:15.880Z,99891.59
2023-04-24T17:15:43.566Z,99895.72
2023-04-24T17:18:11.128Z,99895.03
2023-04-24T17:20:39.230Z,99912.81
2023-04-24T17:23:06.714Z,99899.16
2023-04-24T17:25:34.178Z,99913.13
2023-04-24T17:28:02.918Z,99912.47
2023-04-24T17:30:30.719Z,99916.78
2023-04-24T17:32:58.214Z,99915.28
2023-04-24T17:35:25.728Z,99917.94
2023-04-24T17:37:53.185Z,99932.47
2023-04-24T17:40:20.611Z,99924.06
2023-04-24T17:42:48.446Z,99948.81
2023-04-24T17:45:17.195Z,99947.00
2023-04-24T17:47:44.686Z,99942.84
2023-04-24T17:50:12.375Z,99954.91
2023-04-24T17:52:39.791Z,99950.97
2023-04-24T17:55:07.909Z,99947.78
2023-04-24T17:57:35.466Z,99963.97
2023-04-24T18:00:02.928Z,99973.91
2023-04-24T18:02:31.770Z,99973.59
2023-04-24T18:04:59.287Z,99973.75
2023-04-24T18:07:26.775Z,99977.13
2023-04-24T18:09:56.122Z,99989.34
2023-04-24T18:12:23.823Z,99989.25
2023-04-24T18:14:54.907Z,100003.28
2023-04-24T18:17:31.634Z,100009.38
2023-04-24T18:19:59.052Z,100006.78
2023-04-24T18:22:26.780Z,100012.63
2023-04-24T18:24:54.182Z,100026.75
2023-04-24T18:27:21.691Z,100037.19
2023-04-24T18:29:49.247Z,100040.25
2023-04-24T18:32:16.658Z,100048.06
2023-04-24T18:34:45.464Z,100050.97
2023-04-24T18:37:12.916Z,100058.00
2023-04-24T18:39:40.572Z,100056.78
2023-04-24T18:42:08.130Z,100083.47
2023-04-24T18:44:35.793Z,100078.47
2023-04-24T18:47:05.569Z,100090.88
2023-04-24T18:49:33.050Z,100094.34
2023-04-24T18:52:02.014Z,100099.81
2023-04-24T18:54:29.542Z,100102.78
2023-04-24T18:56:57.409Z,100098.09
2023-04-24T18:59:24.893Z,100102.38
2023-04-24T19:01:52.632Z,100102.00
2023-04-24T19:04:20.821Z,100117.44
2023-04-24T19:06:48.540Z,100117.63
2023-04-24T19:09:17.402Z,100120.16
2023-04-24T19:11:44.932Z,100131.13
2023-04-24T19:14:13.513Z,100133.94
2023-04-24T19:16:41.660Z,100137.81
2023-04-24T19:19:09.236Z,100129.00
2023-04-24T19:21:40.121Z,100129.69
2023-04-24T19:24:09.881Z,100136.19
2023-04-24T19:26:38.610Z,100131.31
2023-04-24T19:29:06.117Z,100128.94
2023-04-24T19:31:33.891Z,100136.16
2023-04-24T19:34:03.360Z,100131.09
2023-04-24T19:36:31.200Z,100132.66
2023-04-24T19:39:02.395Z,100130.94
2023-04-24T19:41:29.785Z,100146.84
2023-04-24T19:43:58.607Z,100142.81
2023-04-24T19:46:26.127Z,100135.91
2023-04-24T19:48:53.640Z,100134.00
2023-04-24T19:51:21.089Z,100149.53
2023-04-24T19:53:49.397Z,100140.72
2023-04-24T19:56:16.840Z,100139.72
2023-04-24T19:58:44.384Z,100139.06
2023-04-24T20:01:15.953Z,100147.28
2023-04-24T20:03:43.585Z,100147.09
2023-04-24T20:06:11.130Z,100140.19
2023-04-24T20:08:39.595Z,100149.53
2023-04-24T20:11:07.203Z,100146.13
2023-04-24T20:13:34.916Z,100155.78
2023-04-24T20:16:02.446Z,100150.38
2023-04-24T20:18:31.291Z,100148.19
2023-04-24T20:20:59.993Z,100151.44
2023-04-24T20:23:27.852Z,100154.91
2023-04-24T20:25:58.251Z,100144.16
2023-04-24T20:28:26.868Z,100148.22
2023-04-24T20:30:56.946Z,100153.94
2023-04-24T20:33:25.732Z,100152.16
2023-04-24T20:35:54.649Z,100152.84
2023-04-24T20:38:22.921Z,100151.53
2023-04-24T20:40:57.825Z,100149.59
2023-04-24T20:43:28.683Z,100148.41
2023-04-24T20:45:57.826Z,100147.47
2023-04-24T20:48:27.553Z,100144.72
2023-04-24T20:50:56.578Z,100142.94
2023-04-24T20:53:24.283Z,100138.84
2023-04-24T20:55:51.810Z,100146.16
2023-04-24T20:58:22.693Z,100141.13
2023-04-24T21:00:50.409Z,100148.59
2023-04-24T21:03:18.197Z,100146.19
2023-04-24T21:05:45.846Z,100138.41
2023-04-24T21:08:14.856Z,100149.56
2023-04-24T21:10:42.318Z,100145.47
2023-04-24T21:13:10.022Z,100146.47
2023-04-24T21:15:37.617Z,100147.06
2023-04-24T21:18:05.749Z,100148.88
2023-04-24T21:20:33.303Z,100157.09
2023-04-24T21:23:00.883Z,100144.25
2023-04-24T21:25:30.931Z,100134.94
2023-04-24T21:27:59.964Z,100127.34
2023-04-24T21:30:27.742Z,100127.34
2023-04-24T21:32:56.088Z,100124.28
2023-04-24T21:35:23.655Z,100128.13
2023-04-24T21:37:51.408Z,100127.94
2023-04-24T21:40:19.080Z,100137.22
2023-04-24T21:42:47.989Z,100142.19
2023-04-24T21:45:15.574Z,100144.91
2023-04-24T21:47:43.013Z,100139.19
2023-04-24T21:50:11.558Z,100134.28
2023-04-24T21:52:39.032Z,100131.31
2023-04-24T21:55:07.188Z,100131.50
2023-04-24T21:57:34.769Z,100129.59
2023-04-24T22:00:03.565Z,100132.25
2023-04-24T22:02:31.130Z,100133.47
2023-04-24T22:05:01.324Z,100137.78
2023-04-24T22:07:28.789Z,100134.88
2023-04-24T22:09:56.189Z,100126.97
2023-04-24T22:12:23.781Z,100128.91
2023-04-24T22:14:51.573Z,100123.75
2023-04-24T22:17:20.532Z,100117.56
2023-04-24T22:19:47.923Z,100122.19
2023-04-24T22:22:15.423Z,100133.03
2023-04-24T22:24:42.837Z,100130.50
2023-04-24T22:27:10.322Z,100132.25
2023-04-24T22:29:37.839Z,100132.88
2023-04-24T22:32:05.553Z,100130.44
2023-04-24T22:34:37.054Z,100130.53
2023-04-24T22:37:04.488Z,100139.50
2023-04-24T22:39:31.908Z,100134.53
2023-04-24T22:41:59.384Z,100135.16
2023-04-24T22:44:26.842Z,100143.88
2023-04-24T22:46:54.285Z,100143.09
2023-04-24T22:49:22.229Z,100135.31
2023-04-24T22:51:51.730Z,100139.19
2023-04-24T22:54:19.115Z,100137.56
2023-04-24T22:56:46.755Z,100138.66
2023-04-24T22:59:14.226Z,100153.69
2023-04-24T23:01:41.653Z,100143.19
2023-04-24T23:04:09.281Z,100149.38
2023-04-24T23:06:36.852Z,100145.63
2023-04-24T23:09:05.612Z,100139.97
2023-04-24T23:11:33.050Z,100145.31
2023-04-24T23:14:00.675Z,100144.41
2023-04-24T23:16:30.873Z,100150.84
2023-04-24T23:18:58.434Z,100140.41
2023-04-24T23:21:26.790Z,100135.19
2023-04-24T23:23:54.238Z,100129.13
2023-04-24T23:26:23.011Z,100130.88
2023-04-24T23:28:50.449Z,100125.00
2023-04-24T23:31:17.860Z,100122.91
2023-04-24T23:33:45.310Z,100119.38
2023-04-24T23:36:13.114Z,100115.81
2023-04-24T23:38:49.507Z,100116.25
2023-04-24T23:41:17.893Z,100113.78
2023-04-24T23:43:46.757Z,100121.81
2023-04-24T23:46:14.335Z,100122.75
2023-04-24T23:48:41.807Z,100122.41
2023-04-24T23:51:09.322Z,100132.91
2023-04-24T23:53:36.746Z,100125.31
2023-04-24T23:56:04.414Z,100129.44
2023-04-24T23:58:32.055Z,100126.81
